sensor_id;sensor_type;location;lat;lon;timestamp;pressure;altitude;pressure_sealevel;temperature;humidity
51289;BME280;37372;52.294;5.152;2023-05-21T00:02:26;101997.19;;;14.50;66.98
51289;BME280;37372;52.294;5.152;2023-05-21T00:04:54;101994.22;;;14.45;67.56
51289;BME280;37372;52.294;5.152;2023-05-21T00:07:23;101990.44;;;14.39;66.52
51289;BME280;37372;52.294;5.152;2023-05-21T00:09:50;101988.69;;;14.45;67.13
51289;BME280;37372;52.294;5.152;2023-05-21T00:12:19;101988.09;;;14.43;67.05
51289;BME280;37372;52.294;5.152;2023-05-21T00:14:46;101982.41;;;14.38;67.78
51289;BME280;37372;52.294;5.152;2023-05-21T00:17:12;101981.09;;;14.40;67.50
51289;BME280;37372;52.294;5.152;2023-05-21T00:19:38;101980.47;;;14.38;67.56
51289;BME280;37372;52.294;5.152;2023-05-21T00:22:04;101979.00;;;14.35;67.96
51289;BME280;37372;52.294;5.152;2023-05-21T00:24:35;101973.47;;;14.35;68.08
51289;BME280;37372;52.294;5.152;2023-05-21T00:27:02;101967.75;;;14.37;68.58
51289;BME280;37372;52.294;5.152;2023-05-21T00:29:27;101965.44;;;14.34;68.79
51289;BME280;37372;52.294;5.152;2023-05-21T00:31:54;101964.28;;;14.42;67.70
51289;BME280;37372;52.294;5.152;2023-05-21T00:34:20;101967.53;;;14.39;68.27
51289;BME280;37372;52.294;5.152;2023-05-21T00:36:45;101967.75;;;14.37;68.12
51289;BME280;37372;52.294;5.152;2023-05-21T00:39:12;101974.13;;;14.38;68.25
51289;BME280;37372;52.294;5.152;2023-05-21T00:41:48;101970.59;;;14.30;68.67
51289;BME280;37372;52.294;5.152;2023-05-21T00:44:14;101968.88;;;14.29;68.06
51289;BME280;37372;52.294;5.152;2023-05-21T00:46:44;101972.94;;;14.27;68.54
51289;BME280;37372;52.294;5.152;2023-05-21T00:49:13;101971.63;;;14.29;68.09
51289;BME280;37372;52.294;5.152;2023-05-21T00:51:45;101962.50;;;14.29;68.33
51289;BME280;37372;52.294;5.152;2023-05-21T00:54:16;101960.47;;;14.24;68.89
51289;BME280;37372;52.294;5.152;2023-05-21T00:56:43;101960.47;;;14.24;68.92
51289;BME280;37372;52.294;5.152;2023-05-21T00:59:15;101945.81;;;14.24;69.03
51289;BME280;37372;52.294;5.152;2023-05-21T01:01:48;101956.00;;;14.23;68.13
51289;BME280;37372;52.294;5.152;2023-05-21T01:04:21;101943.91;;;14.24;68.06
51289;BME280;37372;52.294;5.152;2023-05-21T01:06:47;101947.03;;;14.28;68.47
51289;BME280;37372;52.294;5.152;2023-05-21T01:09:13;101940.06;;;14.25;68.36
51289;BME280;37372;52.294;5.152;2023-05-21T01:11:49;101940.91;;;14.26;68.12
51289;BME280;37372;52.294;5.152;2023-05-21T01:14:16;101952.19;;;14.24;68.58
51289;BME280;37372;52.294;5.152;2023-05-21T01:16:49;101950.69;;;14.22;69.16
51289;BME280;37372;52.294;5.152;2023-05-21T01:19:18;101947.56;;;14.18;69.24
51289;BME280;37372;52.294;5.152;2023-05-21T01:21:52;101940.38;;;14.17;69.84
51289;BME280;37372;52.294;5.152;2023-05-21T01:24:20;101943.56;;;14.14;69.43
51289;BME280;37372;52.294;5.152;2023-05-21T01:26:53;101941.41;;;14.16;69.70
51289;BME280;37372;52.294;5.152;2023-05-21T01:29:18;101939.34;;;14.12;70.89
51289;BME280;37372;52.294;5.152;2023-05-21T01:34:59;101935.97;;;14.09;70.93
51289;BME280;37372;52.294;5.152;2023-05-21T01:37:30;101926.16;;;14.14;70.40
51289;BME280;37372;52.294;5.152;2023-05-21T01:43:05;101935.53;;;14.13;70.67
51289;BME280;37372;52.294;5.152;2023-05-21T01:45:32;101929.00;;;14.07;70.52
51289;BME280;37372;52.294;5.152;2023-05-21T01:48:00;101934.03;;;14.10;70.58
51289;BME280;37372;52.294;5.152;2023-05-21T01:50:28;101942.31;;;14.10;70.94
51289;BME280;37372;52.294;5.152;2023-05-21T01:52:59;101937.88;;;14.09;70.83
51289;BME280;37372;52.294;5.152;2023-05-21T01:55:28;101929.59;;;14.09;70.96
51289;BME280;37372;52.294;5.152;2023-05-21T01:57:58;101929.84;;;14.07;71.34
51289;BME280;37372;52.294;5.152;2023-05-21T02:00:27;101932.16;;;14.11;71.36
51289;BME280;37372;52.294;5.152;2023-05-21T02:02:53;101930.44;;;14.09;70.64
51289;BME280;37372;52.294;5.152;2023-05-21T02:05:19;101932.16;;;14.11;70.78
51289;BME280;37372;52.294;5.152;2023-05-21T02:07:49;101931.28;;;14.10;70.90
51289;BME280;37372;52.294;5.152;2023-05-21T02:10:17;101929.22;;;14.05;71.29
51289;BME280;37372;52.294;5.152;2023-05-21T02:12:51;101931.81;;;14.00;70.76
51289;BME280;37372;52.294;5.152;2023-05-21T02:15:17;101935.66;;;13.99;70.96
51289;BME280;37372;52.294;5.152;2023-05-21T02:17:48;101932.25;;;13.97;71.26
51289;BME280;37372;52.294;5.152;2023-05-21T02:20:17;101934.81;;;13.99;70.98
51289;BME280;37372;52.294;5.152;2023-05-21T02:23:05;101932.13;;;13.92;70.96
51289;BME280;37372;52.294;5.152;2023-05-21T02:25:30;101933.13;;;13.98;71.04
51289;BME280;37372;52.294;5.152;2023-05-21T02:28:04;101930.97;;;14.00;70.53
51289;BME280;37372;52.294;5.152;2023-05-21T02:30:31;101925.22;;;14.01;71.80
51289;BME280;37372;52.294;5.152;2023-05-21T02:32:56;101929.06;;;14.00;70.64
51289;BME280;37372;52.294;5.152;2023-05-21T02:35:23;101933.13;;;13.98;70.48
51289;BME280;37372;52.294;5.152;2023-05-21T02:38:03;101928.28;;;13.93;70.87
51289;BME280;37372;52.294;5.152;2023-05-21T02:40:29;101931.03;;;13.93;71.50
51289;BME280;37372;52.294;5.152;2023-05-21T02:43:02;101932.50;;;13.96;71.67
51289;BME280;37372;52.294;5.152;2023-05-21T02:45:28;101929.13;;;13.94;71.87
51289;BME280;37372;52.294;5.152;2023-05-21T02:48:01;101930.19;;;13.93;71.85
51289;BME280;37372;52.294;5.152;2023-05-21T02:50:27;101929.50;;;13.97;72.48
51289;BME280;37372;52.294;5.152;2023-05-21T02:52:53;101922.53;;;13.95;71.74
51289;BME280;37372;52.294;5.152;2023-05-21T02:55:18;101930.19;;;13.93;72.65
51289;BME280;37372;52.294;5.152;2023-05-21T02:57:51;101930.44;;;13.91;73.28
51289;BME280;37372;52.294;5.152;2023-05-21T03:00:27;101928.28;;;13.93;72.85
51289;BME280;37372;52.294;5.152;2023-05-21T03:02:54;101928.03;;;13.95;73.67
51289;BME280;37372;52.294;5.152;2023-05-21T03:05:21;101930.81;;;13.95;73.29
51289;BME280;37372;52.294;5.152;2023-05-21T03:07:47;101925.97;;;13.90;72.45
51289;BME280;37372;52.294;5.152;2023-05-21T03:10:12;101930.19;;;13.93;72.15
51289;BME280;37372;52.294;5.152;2023-05-21T03:12:38;101930.38;;;13.98;72.41
51289;BME280;37372;52.294;5.152;2023-05-21T03:15:04;101923.97;;;13.97;71.52
51289;BME280;37372;52.294;5.152;2023-05-21T03:17:29;101919.78;;;13.95;71.83
51289;BME280;37372;52.294;5.152;2023-05-21T03:19:58;101921.47;;;13.96;71.83
51289;BME280;37372;52.294;5.152;2023-05-21T03:22:24;101917.19;;;14.00;71.05
51289;BME280;37372;52.294;5.152;2023-05-21T03:24:50;101913.19;;;13.96;71.17
51289;BME280;37372;52.294;5.152;2023-05-21T03:27:18;101912.91;;;14.04;71.26
51289;BME280;37372;52.294;5.152;2023-05-21T03:29:43;101918.63;;;14.02;71.27
51289;BME280;37372;52.294;5.152;2023-05-21T03:32:19;101924.63;;;13.99;71.26
51289;BME280;37372;52.294;5.152;2023-05-21T03:34:44;101921.47;;;13.96;72.13
51289;BME280;37372;52.294;5.152;2023-05-21T03:37:19;101912.81;;;13.92;72.29
51289;BME280;37372;52.294;5.152;2023-05-21T03:39:44;101915.16;;;13.89;72.65
51289;BME280;37372;52.294;5.152;2023-05-21T03:42:22;101912.34;;;13.95;72.85
51289;BME280;37372;52.294;5.152;2023-05-21T03:44:48;101908.50;;;13.96;72.11
51289;BME280;37372;52.294;5.152;2023-05-21T03:47:54;101905.06;;;14.01;72.35
51289;BME280;37372;52.294;5.152;2023-05-21T03:50:39;101910.19;;;13.97;72.85
51289;BME280;37372;52.294;5.152;2023-05-21T03:53:34;101907.22;;;13.99;73.37
51289;BME280;37372;52.294;5.152;2023-05-21T03:56:00;101902.78;;;13.98;72.37
51289;BME280;37372;52.294;5.152;2023-05-21T03:58:26;101907.66;;;13.96;72.85
51289;BME280;37372;52.294;5.152;2023-05-21T04:00:52;101904.28;;;13.94;73.37
51289;BME280;37372;52.294;5.152;2023-05-21T04:03:23;101901.38;;;13.89;73.42
51289;BME280;37372;52.294;5.152;2023-05-21T04:06:08;101906.28;;;13.87;74.35
51289;BME280;37372;52.294;5.152;2023-05-21T04:08:45;101897.75;;;13.88;74.54
51289;BME280;37372;52.294;5.152;2023-05-21T04:11:11;101911.97;;;13.92;74.38
51289;BME280;37372;52.294;5.152;2023-05-21T04:13:37;101905.81;;;13.90;74.34
51289;BME280;37372;52.294;5.152;2023-05-21T04:16:03;101906.88;;;13.89;74.89
51289;BME280;37372;52.294;5.152;2023-05-21T04:18:28;101911.31;;;13.90;74.79
51289;BME280;37372;52.294;5.152;2023-05-21T04:20:53;101904.53;;;13.92;75.88
51289;BME280;37372;52.294;5.152;2023-05-21T04:23:28;101908.63;;;13.83;75.40
51289;BME280;37372;52.294;5.152;2023-05-21T04:25:53;101904.13;;;13.89;75.83
51289;BME280;37372;52.294;5.152;2023-05-21T04:28:19;101908.41;;;13.85;76.28
51289;BME280;37372;52.294;5.152;2023-05-21T04:30:48;101907.34;;;13.86;76.72
51289;BME280;37372;52.294;5.152;2023-05-21T04:33:22;101907.72;;;13.89;77.60
51289;BME280;37372;52.294;5.152;2023-05-21T04:35:50;101917.00;;;13.95;76.93
51289;BME280;37372;52.294;5.152;2023-05-21T04:38:21;101908.31;;;13.98;76.55
51289;BME280;37372;52.294;5.152;2023-05-21T04:40:48;101911.13;;;13.91;77.33
51289;BME280;37372;52.294;5.152;2023-05-21T04:43:28;101912.09;;;13.97;77.33
51289;BME280;37372;52.294;5.152;2023-05-21T04:45:54;101917.19;;;14.00;77.41
51289;BME280;37372;52.294;5.152;2023-05-21T04:48:23;101909.56;;;13.95;77.50
51289;BME280;37372;52.294;5.152;2023-05-21T04:50:57;101910.19;;;13.97;77.10
51289;BME280;37372;52.294;5.152;2023-05-21T04:53:24;101915.03;;;14.02;77.21
51289;BME280;37372;52.294;5.152;2023-05-21T04:55:53;101913.19;;;13.96;77.65
51289;BME280;37372;52.294;5.152;2023-05-21T04:58:31;101909.81;;;13.94;77.31
51289;BME280;37372;52.294;5.152;2023-05-21T05:00:58;101923.31;;;14.02;77.73
51289;BME280;37372;52.294;5.152;2023-05-21T05:03:27;101913.75;;;14.04;77.88
51289;BME280;37372;52.294;5.152;2023-05-21T05:05:54;101910.91;;;14.11;77.68
51289;BME280;37372;52.294;5.152;2023-05-21T05:08:29;101913.44;;;14.13;77.63
51289;BME280;37372;52.294;5.152;2023-05-21T05:11:05;101920.41;;;14.15;77.93
51289;BME280;37372;52.294;5.152;2023-05-21T05:13:30;101920.81;;;14.19;77.28
51289;BME280;37372;52.294;5.152;2023-05-21T05:16:04;101914.06;;;14.15;77.86
51289;BME280;37372;52.294;5.152;2023-05-21T05:21:48;101925.19;;;14.26;77.77
51289;BME280;37372;52.294;5.152;2023-05-21T05:24:13;101919.34;;;14.16;77.68
51289;BME280;37372;52.294;5.152;2023-05-21T05:26:40;101921.81;;;14.24;77.87
51289;BME280;37372;52.294;5.152;2023-05-21T05:29:15;101918.88;;;14.19;78.21
51289;BME280;37372;52.294;5.152;2023-05-21T05:31:41;101909.53;;;14.20;78.80
51289;BME280;37372;52.294;5.152;2023-05-21T05:34:06;101903.50;;;14.30;78.18
51289;BME280;37372;52.294;5.152;2023-05-21T05:36:32;101907.69;;;14.32;78.20
51289;BME280;37372;52.294;5.152;2023-05-21T05:39:00;101908.63;;;14.26;78.24
51289;BME280;37372;52.294;5.152;2023-05-21T05:41:29;101905.69;;;14.21;78.29
51289;BME280;37372;52.294;5.152;2023-05-21T05:43:55;101904.00;;;14.20;77.94
51289;BME280;37372;52.294;5.152;2023-05-21T05:46:24;101901.72;;;14.17;78.05
51289;BME280;37372;52.294;5.152;2023-05-21T05:48:51;101896.81;;;14.19;76.87
51289;BME280;37372;52.294;5.152;2023-05-21T05:51:19;101904.50;;;14.17;77.76
51289;BME280;37372;52.294;5.152;2023-05-21T05:53:45;101898.72;;;14.19;77.84
51289;BME280;37372;52.294;5.152;2023-05-21T05:56:10;101898.56;;;14.14;77.86
51289;BME280;37372;52.294;5.152;2023-05-21T05:58:36;101910.44;;;14.14;77.64
51289;BME280;37372;52.294;5.152;2023-05-21T06:01:02;101904.84;;;14.21;77.84
51289;BME280;37372;52.294;5.152;2023-05-21T06:03:39;101901.88;;;14.22;76.81
51289;BME280;37372;52.294;5.152;2023-05-21T06:06:13;101899.56;;;14.19;76.87
51289;BME280;37372;52.294;5.152;2023-05-21T06:08:38;101901.09;;;14.15;77.70
51289;BME280;37372;52.294;5.152;2023-05-21T06:11:08;101897.41;;;14.21;77.63
51289;BME280;37372;52.294;5.152;2023-05-21T06:13:38;101889.97;;;14.22;77.29
51289;BME280;37372;52.294;5.152;2023-05-21T06:16:06;101895.06;;;14.25;76.99
51289;BME280;37372;52.294;5.152;2023-05-21T06:18:34;101891.72;;;14.16;77.08
51289;BME280;37372;52.294;5.152;2023-05-21T06:20:59;101890.97;;;14.27;76.60
51289;BME280;37372;52.294;5.152;2023-05-21T06:23:25;101889.81;;;14.35;75.38
51289;BME280;37372;52.294;5.152;2023-05-21T06:25:51;101898.09;;;14.35;76.04
51289;BME280;37372;52.294;5.152;2023-05-21T06:28:17;101897.41;;;14.40;75.72
51289;BME280;37372;52.294;5.152;2023-05-21T06:30:43;101895.25;;;14.42;76.47
51289;BME280;37372;52.294;5.152;2023-05-21T06:33:12;101894.38;;;14.48;75.98
51289;BME280;37372;52.294;5.152;2023-05-21T06:35:38;101896.53;;;14.64;75.55
51289;BME280;37372;52.294;5.152;2023-05-21T06:38:04;101894.97;;;14.68;74.18
51289;BME280;37372;52.294;5.152;2023-05-21T06:40:31;101899.72;;;14.79;73.97
51289;BME280;37372;52.294;5.152;2023-05-21T06:42:59;101901.38;;;14.80;74.61
51289;BME280;37372;52.294;5.152;2023-05-21T06:45:26;101900.59;;;14.92;74.54
51289;BME280;37372;52.294;5.152;2023-05-21T06:48:00;101902.03;;;14.82;73.98
51289;BME280;37372;52.294;5.152;2023-05-21T06:50:25;101906.31;;;14.78;74.16
51289;BME280;37372;52.294;5.152;2023-05-21T06:52:54;101904.56;;;15.14;74.25
51289;BME280;37372;52.294;5.152;2023-05-21T06:55:20;101900.84;;;15.20;73.25
51289;BME280;37372;52.294;5.152;2023-05-21T06:57:46;101902.19;;;15.29;72.92
51289;BME280;37372;52.294;5.152;2023-05-21T07:00:15;101899.81;;;15.33;72.20
51289;BME280;37372;52.294;5.152;2023-05-21T07:05:27;101903.75;;;15.37;71.83
51289;BME280;37372;52.294;5.152;2023-05-21T07:08:03;101904.47;;;15.32;72.52
51289;BME280;37372;52.294;5.152;2023-05-21T07:10:28;101896.94;;;15.51;72.15
51289;BME280;37372;52.294;5.152;2023-05-21T07:13:06;101898.91;;;15.62;72.20
51289;BME280;37372;52.294;5.152;2023-05-21T07:15:33;101891.59;;;15.91;71.75
51289;BME280;37372;52.294;5.152;2023-05-21T07:18:02;101889.63;;;16.27;71.42
51289;BME280;37372;52.294;5.152;2023-05-21T07:20:32;101897.03;;;16.62;69.12
51289;BME280;37372;52.294;5.152;2023-05-21T07:23:10;101891.38;;;16.57;70.40
51289;BME280;37372;52.294;5.152;2023-05-21T07:25:35;101893.25;;;16.79;69.89
51289;BME280;37372;52.294;5.152;2023-05-21T07:28:04;101899.56;;;16.51;68.23
51289;BME280;37372;52.294;5.152;2023-05-21T07:30:51;101900.63;;;16.62;68.08
51289;BME280;37372;52.294;5.152;2023-05-21T07:33:16;101901.34;;;16.69;67.46
51289;BME280;37372;52.294;5.152;2023-05-21T07:35:44;101906.31;;;16.96;67.26
51289;BME280;37372;52.294;5.152;2023-05-21T07:38:09;101905.88;;;17.16;67.73
51289;BME280;37372;52.294;5.152;2023-05-21T07:40:35;101898.41;;;16.88;66.68
51289;BME280;37372;52.294;5.152;2023-05-21T07:43:21;101897.75;;;16.97;67.62
51289;BME280;37372;52.294;5.152;2023-05-21T07:45:46;101905.16;;;16.80;67.83
51289;BME280;37372;52.294;5.152;2023-05-21T07:48:12;101890.59;;;16.85;67.41
51289;BME280;37372;52.294;5.152;2023-05-21T07:50:50;101886.94;;;17.13;67.48
51289;BME280;37372;52.294;5.152;2023-05-21T07:53:17;101884.63;;;16.93;66.22
51289;BME280;37372;52.294;5.152;2023-05-21T07:55:43;101887.19;;;17.11;65.70
51289;BME280;37372;52.294;5.152;2023-05-21T07:58:15;101898.66;;;17.15;66.83
51289;BME280;37372;52.294;5.152;2023-05-21T08:00:43;101895.09;;;17.19;65.85
51289;BME280;37372;52.294;5.152;2023-05-21T08:03:13;101881.94;;;17.43;66.26
51289;BME280;37372;52.294;5.152;2023-05-21T08:05:40;101885.09;;;17.80;64.39
51289;BME280;37372;52.294;5.152;2023-05-21T08:08:10;101887.09;;;17.68;66.24
51289;BME280;37372;52.294;5.152;2023-05-21T08:10:36;101883.50;;;17.84;65.44
51289;BME280;37372;52.294;5.152;2023-05-21T08:13:01;101884.22;;;17.29;68.43
51289;BME280;37372;52.294;5.152;2023-05-21T08:15:26;101899.34;;;17.39;66.12
51289;BME280;37372;52.294;5.152;2023-05-21T08:17:52;101898.00;;;17.41;66.72
51289;BME280;37372;52.294;5.152;2023-05-21T08:20:17;101899.59;;;16.92;66.38
51289;BME280;37372;52.294;5.152;2023-05-21T08:22:44;101900.88;;;17.01;67.11
51289;BME280;37372;52.294;5.152;2023-05-21T08:25:10;101895.97;;;16.91;67.76
51289;BME280;37372;52.294;5.152;2023-05-21T08:27:35;101886.56;;;17.38;65.85
51289;BME280;37372;52.294;5.152;2023-05-21T08:30:08;101887.41;;;17.38;66.31
51289;BME280;37372;52.294;5.152;2023-05-21T08:33:02;101890.06;;;17.16;66.46
51289;BME280;37372;52.294;5.152;2023-05-21T08:35:26;101889.09;;;17.90;65.36
51289;BME280;37372;52.294;5.152;2023-05-21T08:37:52;101884.81;;;17.48;66.21
51289;BME280;37372;52.294;5.152;2023-05-21T08:40:17;101893.56;;;17.40;66.05
51289;BME280;37372;52.294;5.152;2023-05-21T08:42:49;101880.78;;;17.39;66.34
51289;BME280;37372;52.294;5.152;2023-05-21T08:45:19;101879.63;;;17.52;65.11
51289;BME280;37372;52.294;5.152;2023-05-21T08:47:56;101882.41;;;17.85;66.65
51289;BME280;37372;52.294;5.152;2023-05-21T08:50:28;101891.34;;;18.09;66.11
51289;BME280;37372;52.294;5.152;2023-05-21T08:53:23;101882.66;;;17.84;66.05
51289;BME280;37372;52.294;5.152;2023-05-21T08:55:49;101885.16;;;17.52;67.29
51289;BME280;37372;52.294;5.152;2023-05-21T08:58:26;101884.72;;;17.43;67.27
51289;BME280;37372;52.294;5.152;2023-05-21T09:00:54;101892.94;;;17.21;64.78
51289;BME280;37372;52.294;5.152;2023-05-21T09:03:20;101878.41;;;17.14;67.42
51289;BME280;37372;52.294;5.152;2023-05-21T09:05:46;101880.13;;;17.03;67.54
51289;BME280;37372;52.294;5.152;2023-05-21T09:08:27;101880.19;;;17.20;67.64
51289;BME280;37372;52.294;5.152;2023-05-21T09:10:54;101889.00;;;17.34;67.80
51289;BME280;37372;52.294;5.152;2023-05-21T09:13:35;101875.00;;;17.12;66.79
51289;BME280;37372;52.294;5.152;2023-05-21T09:16:01;101876.38;;;17.10;67.44
51289;BME280;37372;52.294;5.152;2023-05-21T09:18:26;101881.78;;;17.33;67.10
51289;BME280;37372;52.294;5.152;2023-05-21T09:20:52;101878.72;;;17.01;67.35
51289;BME280;37372;52.294;5.152;2023-05-21T09:23:18;101876.63;;;16.68;66.53
51289;BME280;37372;52.294;5.152;2023-05-21T09:25:57;101882.47;;;16.95;67.93
51289;BME280;37372;52.294;5.152;2023-05-21T09:28:31;101885.38;;;17.17;68.10
51289;BME280;37372;52.294;5.152;2023-05-21T09:31:02;101872.59;;;17.16;66.15
51289;BME280;37372;52.294;5.152;2023-05-21T09:33:32;101878.34;;;16.97;68.08
51289;BME280;37372;52.294;5.152;2023-05-21T09:35:57;101885.53;;;16.82;67.86
51289;BME280;37372;52.294;5.152;2023-05-21T09:38:28;101875.38;;;16.87;67.88
51289;BME280;37372;52.294;5.152;2023-05-21T09:40:55;101866.44;;;16.97;68.52
51289;BME280;37372;52.294;5.152;2023-05-21T09:43:35;101875.00;;;17.12;69.52
51289;BME280;37372;52.294;5.152;2023-05-21T09:46:01;101877.47;;;17.09;68.52
51289;BME280;37372;52.294;5.152;2023-05-21T09:48:40;101865.84;;;17.12;67.86
51289;BME280;37372;52.294;5.152;2023-05-21T09:53:48;101866.41;;;17.42;67.64
51289;BME280;37372;52.294;5.152;2023-05-21T09:56:16;101873.78;;;17.20;68.25
51289;BME280;37372;52.294;5.152;2023-05-21T09:58:47;101853.88;;;17.23;67.92
51289;BME280;37372;52.294;5.152;2023-05-21T10:01:13;101853.66;;;17.13;68.33
51289;BME280;37372;52.294;5.152;2023-05-21T10:03:38;101865.53;;;17.25;69.21
51289;BME280;37372;52.294;5.152;2023-05-21T10:06:07;101858.75;;;17.32;66.78
51289;BME280;37372;52.294;5.152;2023-05-21T10:08:35;101851.78;;;17.47;67.47
51289;BME280;37372;52.294;5.152;2023-05-21T10:11:16;101847.81;;;17.09;67.08
51289;BME280;37372;52.294;5.152;2023-05-21T10:14:04;101854.09;;;17.04;67.74
51289;BME280;37372;52.294;5.152;2023-05-21T10:16:33;101849.47;;;17.10;68.03
51289;BME280;37372;52.294;5.152;2023-05-21T10:19:00;101851.69;;;17.58;67.51
51289;BME280;37372;52.294;5.152;2023-05-21T10:21:27;101838.84;;;17.52;67.60
51289;BME280;37372;52.294;5.152;2023-05-21T10:23:54;101839.25;;;17.61;67.53
51289;BME280;37372;52.294;5.152;2023-05-21T10:26:22;101846.38;;;17.57;66.90
51289;BME280;37372;52.294;5.152;2023-05-21T10:28:49;101844.28;;;18.20;64.50
51289;BME280;37372;52.294;5.152;2023-05-21T10:31:25;101840.06;;;18.61;63.60
51289;BME280;37372;52.294;5.152;2023-05-21T10:33:52;101854.94;;;18.93;62.44
51289;BME280;37372;52.294;5.152;2023-05-21T10:36:19;101846.03;;;18.48;63.27
51289;BME280;37372;52.294;5.152;2023-05-21T10:38:46;101838.66;;;18.14;64.40
51289;BME280;37372;52.294;5.152;2023-05-21T10:41:13;101842.56;;;18.35;63.42
51289;BME280;37372;52.294;5.152;2023-05-21T10:47:10;101839.28;;;18.65;64.11
51289;BME280;37372;52.294;5.152;2023-05-21T10:52:49;101833.88;;;18.54;62.87
51289;BME280;37372;52.294;5.152;2023-05-21T10:58:19;101836.00;;;18.47;63.01
51289;BME280;37372;52.294;5.152;2023-05-21T11:00:48;101829.94;;;18.28;62.91
51289;BME280;37372;52.294;5.152;2023-05-21T11:03:14;101837.94;;;18.46;62.79
51289;BME280;37372;52.294;5.152;2023-05-21T11:05:50;101832.56;;;19.10;62.34
51289;BME280;37372;52.294;5.152;2023-05-21T11:08:27;101832.63;;;19.15;64.84
51289;BME280;37372;52.294;5.152;2023-05-21T11:10:58;101825.19;;;18.94;62.74
51289;BME280;37372;52.294;5.152;2023-05-21T11:16:22;101823.34;;;18.34;65.16
51289;BME280;37372;52.294;5.152;2023-05-21T11:19:00;101827.81;;;18.35;64.09
51289;BME280;37372;52.294;5.152;2023-05-21T11:21:28;101820.19;;;18.25;64.66
51289;BME280;37372;52.294;5.152;2023-05-21T11:24:06;101818.19;;;18.21;63.53
51289;BME280;37372;52.294;5.152;2023-05-21T11:26:57;101822.13;;;18.25;65.55
51289;BME280;37372;52.294;5.152;2023-05-21T11:29:44;101813.81;;;18.25;64.22
51289;BME280;37372;52.294;5.152;2023-05-21T11:32:12;101808.72;;;18.17;65.80
51289;BME280;37372;52.294;5.152;2023-05-21T11:34:49;101809.78;;;18.16;64.31
51289;BME280;37372;52.294;5.152;2023-05-21T11:39:44;101807.56;;;17.96;65.28
51289;BME280;37372;52.294;5.152;2023-05-21T11:42:29;101800.09;;;17.96;65.60
51289;BME280;37372;52.294;5.152;2023-05-21T11:44:56;101802.44;;;18.04;65.31
51289;BME280;37372;52.294;5.152;2023-05-21T11:47:26;101798.03;;;17.86;64.16
51289;BME280;37372;52.294;5.152;2023-05-21T11:49:51;101806.31;;;18.03;66.22
51289;BME280;37372;52.294;5.152;2023-05-21T11:52:17;101805.78;;;18.28;64.00
51289;BME280;37372;52.294;5.152;2023-05-21T11:54:57;101797.22;;;18.30;64.03
51289;BME280;37372;52.294;5.152;2023-05-21T11:57:27;101797.97;;;18.25;62.94
51289;BME280;37372;52.294;5.152;2023-05-21T12:00:01;101796.59;;;18.28;64.70
51289;BME280;37372;52.294;5.152;2023-05-21T12:02:36;101791.44;;;18.36;64.19
51289;BME280;37372;52.294;5.152;2023-05-21T12:05:02;101777.78;;;18.35;65.60
51289;BME280;37372;52.294;5.152;2023-05-21T12:07:28;101785.28;;;18.56;63.46
51289;BME280;37372;52.294;5.152;2023-05-21T12:09:54;101779.13;;;18.54;63.90
51289;BME280;37372;52.294;5.152;2023-05-21T12:12:22;101779.09;;;18.27;63.77
51289;BME280;37372;52.294;5.152;2023-05-21T12:14:57;101766.59;;;18.25;64.06
51289;BME280;37372;52.294;5.152;2023-05-21T12:17:36;101772.28;;;18.13;63.86
51289;BME280;37372;52.294;5.152;2023-05-21T12:20:03;101766.50;;;18.20;63.77
51289;BME280;37372;52.294;5.152;2023-05-21T12:22:32;101762.50;;;18.32;63.66
51289;BME280;37372;52.294;5.152;2023-05-21T12:25:00;101767.34;;;18.20;66.78
51289;BME280;37372;52.294;5.152;2023-05-21T12:27:26;101765.78;;;18.51;65.63
51289;BME280;37372;52.294;5.152;2023-05-21T12:30:02;101763.28;;;18.28;64.49
51289;BME280;37372;52.294;5.152;2023-05-21T12:32:28;101757.38;;;17.97;65.06
51289;BME280;37372;52.294;5.152;2023-05-21T12:35:01;101758.19;;;18.20;66.28
51289;BME280;37372;52.294;5.152;2023-05-21T12:37:42;101757.63;;;18.18;64.99
51289;BME280;37372;52.294;5.152;2023-05-21T12:40:09;101769.03;;;18.43;66.51
51289;BME280;37372;52.294;5.152;2023-05-21T12:42:37;101767.41;;;18.25;65.61
51289;BME280;37372;52.294;5.152;2023-05-21T12:45:08;101757.84;;;18.38;65.48
51289;BME280;37372;52.294;5.152;2023-05-21T12:47:35;101765.06;;;18.39;65.48
51289;BME280;37372;52.294;5.152;2023-05-21T12:50:04;101751.03;;;18.24;64.28
51289;BME280;37372;52.294;5.152;2023-05-21T12:52:33;101755.28;;;18.31;66.15
51289;BME280;37372;52.294;5.152;2023-05-21T12:55:03;101759.28;;;18.19;64.98
51289;BME280;37372;52.294;5.152;2023-05-21T12:57:36;101757.28;;;18.14;65.53
51289;BME280;37372;52.294;5.152;2023-05-21T13:00:06;101762.13;;;18.24;68.31
51289;BME280;37372;52.294;5.152;2023-05-21T13:02:34;101766.66;;;18.08;66.02
51289;BME280;37372;52.294;5.152;2023-05-21T13:05:06;101754.16;;;18.32;67.07
51289;BME280;37372;52.294;5.152;2023-05-21T13:07:34;101757.63;;;18.45;67.29
51289;BME280;37372;52.294;5.152;2023-05-21T13:10:05;101748.63;;;18.59;67.07
51289;BME280;37372;52.294;5.152;2023-05-21T13:12:32;101755.97;;;18.44;66.46
51289;BME280;37372;52.294;5.152;2023-05-21T13:15:16;101748.13;;;18.40;66.42
51289;BME280;37372;52.294;5.152;2023-05-21T13:17:44;101743.28;;;18.53;64.76
51289;BME280;37372;52.294;5.152;2023-05-21T13:20:18;101750.00;;;18.35;66.29
51289;BME280;37372;52.294;5.152;2023-05-21T13:22:50;101744.16;;;18.31;65.69
51289;BME280;37372;52.294;5.152;2023-05-21T13:25:21;101753.59;;;18.30;66.38
51289;BME280;37372;52.294;5.152;2023-05-21T13:27:50;101748.34;;;18.34;65.93
51289;BME280;37372;52.294;5.152;2023-05-21T13:30:17;101746.59;;;18.28;66.81
51289;BME280;37372;52.294;5.152;2023-05-21T13:32:43;101745.25;;;18.30;67.50
51289;BME280;37372;52.294;5.152;2023-05-21T13:35:14;101738.41;;;18.38;66.53